createdAt,value
2023-03-24T00:00:29.799Z,9.97
2023-03-24T00:02:57.185Z,10.28
2023-03-24T00:05:24.480Z,10.14
2023-03-24T00:10:23.842Z,11.00
2023-03-24T00:12:51.422Z,10.91
2023-03-24T00:15:21.254Z,10.59
2023-03-24T00:17:50.063Z,10.76
2023-03-24T00:20:19.681Z,11.31
2023-03-24T00:22:49.216Z,10.84
2023-03-24T00:25:17.726Z,10.65
2023-03-24T00:27:46.697Z,10.83
2023-03-24T00:30:13.862Z,11.12
2023-03-24T00:32:41.103Z,10.76
2023-03-24T00:35:10.661Z,10.64
2023-03-24T00:37:38.439Z,10.56
2023-03-24T00:40:07.909Z,10.52
2023-03-24T00:42:35.698Z,10.65
2023-03-24T00:45:06.059Z,9.53
2023-03-24T00:47:34.418Z,9.07
2023-03-24T00:50:01.535Z,8.70
2023-03-24T00:52:28.824Z,9.34
2023-03-24T00:54:56.002Z,9.01
2023-03-24T00:57:23.081Z,9.69
2023-03-24T00:59:50.882Z,10.31
2023-03-24T01:02:22.231Z,10.01
2023-03-24T01:04:53.265Z,10.03
2023-03-24T01:07:20.867Z,10.43
2023-03-24T01:09:49.040Z,10.37
2023-03-24T01:12:16.239Z,10.26
2023-03-24T01:14:43.434Z,10.60
2023-03-24T01:17:10.556Z,10.77
2023-03-24T01:19:39.156Z,10.78
2023-03-24T01:22:06.315Z,10.74
2023-03-24T01:24:33.518Z,11.25
2023-03-24T01:27:00.729Z,11.57
2023-03-24T01:29:27.906Z,11.38
2023-03-24T01:31:55.180Z,11.26
2023-03-24T01:34:22.369Z,10.27
2023-03-24T01:36:51.229Z,10.65
2023-03-24T01:39:18.368Z,10.45
2023-03-24T01:41:45.702Z,10.43
2023-03-24T01:44:28.408Z,10.87
2023-03-24T01:46:56.441Z,10.70
2023-03-24T01:49:27.453Z,10.60
2023-03-24T01:52:01.064Z,10.94
2023-03-24T01:54:34.450Z,10.68
2023-03-24T01:57:06.829Z,10.50
2023-03-24T01:59:39.629Z,10.61
2023-03-24T02:02:07.443Z,10.48
2023-03-24T02:04:40.052Z,10.41
2023-03-24T02:07:18.130Z,10.05
2023-03-24T02:09:46.311Z,10.26
2023-03-24T02:12:13.634Z,10.51
2023-03-24T02:14:41.229Z,10.08
2023-03-24T02:17:38.952Z,10.21
2023-03-24T02:20:38.431Z,9.79
2023-03-24T02:23:53.000Z,10.39
2023-03-24T02:26:44.607Z,9.90
2023-03-24T02:29:58.173Z,10.29
2023-03-24T02:32:53.037Z,9.86
2023-03-24T02:36:06.004Z,9.83
2023-03-24T02:39:19.653Z,9.62
2023-03-24T02:41:59.654Z,9.61
2023-03-24T02:44:35.031Z,9.30
2023-03-24T02:47:11.909Z,9.36
2023-03-24T02:49:54.235Z,9.44
2023-03-24T02:52:33.126Z,9.06
2023-03-24T02:55:07.520Z,8.77
2023-03-24T02:57:43.685Z,9.21
2023-03-24T03:00:19.693Z,8.94
2023-03-24T03:02:53.070Z,9.32
2023-03-24T03:05:28.404Z,9.13
2023-03-24T03:08:01.588Z,9.23
2023-03-24T03:10:35.452Z,9.03
2023-03-24T03:13:11.027Z,9.54
2023-03-24T03:15:43.268Z,9.28
2023-03-24T03:18:22.937Z,9.29
2023-03-24T03:20:55.990Z,8.94
2023-03-24T03:23:29.410Z,9.26
2023-03-24T03:26:03.216Z,9.34
2023-03-24T03:28:34.492Z,9.53
2023-03-24T03:31:05.981Z,7.71
2023-03-24T03:33:40.772Z,7.99
2023-03-24T03:36:17.123Z,8.36
2023-03-24T03:38:54.450Z,8.67
2023-03-24T03:41:22.582Z,8.39
2023-03-24T03:43:52.080Z,7.67
2023-03-24T03:46:19.589Z,7.65
2023-03-24T03:48:47.161Z,7.72
2023-03-24T03:51:16.306Z,7.20
2023-03-24T03:53:48.541Z,7.10
2023-03-24T03:56:19.531Z,7.30
2023-03-24T03:58:47.387Z,6.78
2023-03-24T04:01:20.149Z,7.62
2023-03-24T04:04:20.615Z,7.42
2023-03-24T04:07:03.429Z,7.19
2023-03-24T04:09:41.126Z,7.11
2023-03-24T04:12:33.027Z,7.14
2023-03-24T04:15:29.505Z,7.37
2023-03-24T04:18:26.048Z,7.17
2023-03-24T04:21:21.056Z,7.19
2023-03-24T04:24:02.007Z,6.82
2023-03-24T04:26:36.067Z,7.04
2023-03-24T04:29:17.424Z,7.00
2023-03-24T04:31:52.074Z,7.33
2023-03-24T04:34:26.485Z,6.82
2023-03-24T04:36:59.704Z,6.99
2023-03-24T04:39:31.204Z,7.39
2023-03-24T04:42:06.071Z,7.66
2023-03-24T04:44:34.233Z,7.07
2023-03-24T04:47:05.634Z,7.12
2023-03-24T04:49:37.893Z,7.19
2023-03-24T04:52:06.114Z,6.83
2023-03-24T04:54:34.260Z,6.90
2023-03-24T04:57:02.616Z,6.78
2023-03-24T04:59:31.770Z,7.74
2023-03-24T05:01:59.150Z,6.76
2023-03-24T05:04:28.630Z,6.41
2023-03-24T05:06:57.299Z,6.44
2023-03-24T05:09:25.668Z,6.37
2023-03-24T05:11:52.846Z,6.96
2023-03-24T05:14:20.688Z,7.09
2023-03-24T05:16:47.837Z,6.68
2023-03-24T05:19:15.283Z,6.68
2023-03-24T05:21:42.918Z,7.01
2023-03-24T05:24:11.815Z,6.72
2023-03-24T05:26:38.953Z,6.52
2023-03-24T05:29:06.118Z,6.07
2023-03-24T05:31:33.273Z,6.82
2023-03-24T05:34:00.631Z,6.38
2023-03-24T05:36:28.093Z,6.58
2023-03-24T05:38:55.207Z,6.54
2023-03-24T05:41:23.807Z,6.82
2023-03-24T05:43:50.951Z,6.55
2023-03-24T05:46:18.097Z,6.73
2023-03-24T05:48:45.272Z,7.00
2023-03-24T05:51:12.470Z,7.10
2023-03-24T05:53:39.646Z,6.65
2023-03-24T05:56:07.993Z,6.75
2023-03-24T05:58:36.473Z,6.49
2023-03-24T06:01:07.638Z,6.91
2023-03-24T06:03:35.084Z,6.81
2023-03-24T06:06:02.506Z,7.20
2023-03-24T06:08:29.780Z,7.18
2023-03-24T06:10:59.764Z,6.97
2023-03-24T06:13:26.946Z,6.80
2023-03-24T06:15:55.567Z,7.07
2023-03-24T06:18:22.827Z,6.76
2023-03-24T06:20:49.949Z,6.72
2023-03-24T06:23:17.210Z,6.92
2023-03-24T06:25:44.826Z,6.45
2023-03-24T06:28:12.466Z,5.91
2023-03-24T06:30:40.445Z,6.30
2023-03-24T06:33:08.995Z,5.72
2023-03-24T06:35:36.303Z,5.54
2023-03-24T06:38:03.764Z,6.10
2023-03-24T06:40:31.330Z,5.51
2023-03-24T06:42:58.763Z,6.07
2023-03-24T06:45:26.567Z,5.24
2023-03-24T06:47:54.767Z,5.40
2023-03-24T06:50:23.955Z,5.55
2023-03-24T06:52:51.227Z,5.17
2023-03-24T06:55:18.566Z,5.26
2023-03-24T06:57:45.664Z,5.45
2023-03-24T07:00:13.963Z,5.67
2023-03-24T07:02:41.442Z,5.59
2023-03-24T07:05:09.845Z,5.78
2023-03-24T07:08:23.504Z,5.29
2023-03-24T07:10:26.469Z,4.98
2023-03-24T07:12:53.726Z,4.91
2023-03-24T07:15:20.827Z,5.07
2023-03-24T07:17:47.973Z,4.98
2023-03-24T07:20:15.743Z,5.36
2023-03-24T07:22:44.343Z,4.65
2023-03-24T07:25:11.714Z,5.22
2023-03-24T07:27:39.961Z,4.96
2023-03-24T07:30:10.016Z,5.14
2023-03-24T07:32:37.262Z,4.96
2023-03-24T07:35:05.816Z,4.57
2023-03-24T07:37:33.140Z,4.79
2023-03-24T07:40:01.769Z,4.99
2023-03-24T07:42:28.857Z,4.92
2023-03-24T07:44:56.018Z,4.85
2023-03-24T07:47:23.410Z,4.38
2023-03-24T07:49:50.563Z,4.33
2023-03-24T07:52:17.797Z,4.52
2023-03-24T07:54:44.985Z,4.55
2023-03-24T07:57:13.775Z,4.37
2023-03-24T07:59:41.003Z,4.06
2023-03-24T08:02:17.769Z,4.19
2023-03-24T08:04:45.253Z,4.14
2023-03-24T08:07:13.489Z,3.97
2023-03-24T08:09:41.616Z,4.13
2023-03-24T08:12:19.577Z,4.50
2023-03-24T08:14:49.136Z,4.36
2023-03-24T08:17:16.712Z,4.23
2023-03-24T08:19:58.297Z,4.23
2023-03-24T08:22:26.615Z,4.03
2023-03-24T08:24:53.763Z,3.77
2023-03-24T08:27:21.017Z,4.00
2023-03-24T08:29:49.713Z,4.02
2023-03-24T08:32:16.900Z,4.01
2023-03-24T08:34:44.550Z,4.04
2023-03-24T08:37:12.198Z,3.89
2023-03-24T08:39:39.460Z,3.75
2023-03-24T08:42:06.922Z,3.85
2023-03-24T08:44:34.637Z,4.04
2023-03-24T08:47:03.419Z,3.69
2023-03-24T08:49:31.104Z,3.82
2023-03-24T08:51:58.335Z,3.75
2023-03-24T08:54:25.598Z,3.95
2023-03-24T08:56:52.861Z,3.81
2023-03-24T08:59:20.125Z,4.13
2023-03-24T09:01:47.414Z,4.24
2023-03-24T09:04:16.179Z,3.73
2023-03-24T09:06:43.586Z,4.18
2023-03-24T09:09:10.803Z,3.80
2023-03-24T09:11:38.734Z,4.11
2023-03-24T09:14:06.164Z,4.07
2023-03-24T09:16:33.738Z,4.36
2023-03-24T09:19:01.087Z,4.51
2023-03-24T09:21:29.769Z,3.99
2023-03-24T09:23:56.869Z,4.29
2023-03-24T09:26:24.377Z,4.41
2023-03-24T09:28:51.589Z,4.33
2023-03-24T09:31:18.804Z,4.36
2023-03-24T09:33:46.024Z,4.14
2023-03-24T09:36:13.290Z,4.24
2023-03-24T09:38:41.904Z,4.32
2023-03-24T09:41:17.784Z,3.96
2023-03-24T09:43:50.842Z,4.16
2023-03-24T09:46:29.020Z,4.37
2023-03-24T09:48:57.613Z,4.14
2023-03-24T09:51:26.875Z,4.16
2023-03-24T09:54:05.818Z,4.40
2023-03-24T09:56:36.349Z,4.43
2023-03-24T09:59:07.754Z,4.11
2023-03-24T10:01:36.163Z,4.83
2023-03-24T10:04:07.894Z,5.30
2023-03-24T10:06:39.938Z,4.22
2023-03-24T10:09:22.528Z,3.99
2023-03-24T10:12:06.711Z,4.30
2023-03-24T10:14:49.970Z,4.02
2023-03-24T10:17:29.775Z,4.22
2023-03-24T10:20:05.453Z,3.94
2023-03-24T10:22:39.870Z,4.10
2023-03-24T10:25:20.991Z,4.15
2023-03-24T10:27:54.426Z,4.31
2023-03-24T10:30:27.256Z,4.18
2023-03-24T10:32:54.481Z,3.77
2023-03-24T10:35:27.764Z,3.74
2023-03-24T10:37:59.911Z,3.92
2023-03-24T10:40:33.397Z,3.75
2023-03-24T10:43:09.802Z,3.98
2023-03-24T10:45:40.177Z,4.38
2023-03-24T10:48:07.552Z,4.71
2023-03-24T10:50:35.494Z,5.10
2023-03-24T10:53:19.534Z,5.56
2023-03-24T10:55:49.021Z,5.02
2023-03-24T10:58:26.079Z,4.90
2023-03-24T11:00:55.322Z,4.83
2023-03-24T11:03:29.686Z,4.85
2023-03-24T11:06:03.164Z,4.86
2023-03-24T11:08:34.733Z,5.20
2023-03-24T11:11:15.010Z,4.89
2023-03-24T11:13:42.228Z,4.58
2023-03-24T11:16:13.394Z,4.53
2023-03-24T11:18:56.730Z,4.53
2023-03-24T11:21:26.311Z,4.82
2023-03-24T11:23:53.772Z,4.52
2023-03-24T11:26:30.948Z,4.36
2023-03-24T11:29:02.639Z,4.11
2023-03-24T11:31:34.480Z,3.88
2023-03-24T11:34:09.465Z,3.79
2023-03-24T11:36:47.104Z,3.61
2023-03-24T11:39:19.847Z,3.51
2023-03-24T11:42:16.838Z,3.79
2023-03-24T11:44:50.253Z,3.73
2023-03-24T11:47:30.931Z,3.50
2023-03-24T11:50:15.200Z,3.54
2023-03-24T11:52:49.912Z,3.86
2023-03-24T11:55:24.383Z,3.54
2023-03-24T11:58:01.343Z,4.00
2023-03-24T12:00:35.330Z,3.43
2023-03-24T12:03:33.240Z,3.34
2023-03-24T12:06:14.933Z,3.37
2023-03-24T12:08:58.595Z,2.88
2023-03-24T12:11:43.095Z,2.85
2023-03-24T12:14:13.754Z,2.96
2023-03-24T12:16:52.596Z,3.21
2023-03-24T12:19:51.724Z,3.08
2023-03-24T12:22:34.685Z,2.90
2023-03-24T12:25:43.701Z,2.72
2023-03-24T12:28:29.791Z,2.45
2023-03-24T12:31:14.978Z,2.45
2023-03-24T12:33:55.519Z,2.78
2023-03-24T12:36:46.438Z,3.10
2023-03-24T12:39:20.256Z,2.96
2023-03-24T12:42:06.840Z,2.75
2023-03-24T12:45:03.729Z,2.99
2023-03-24T12:47:58.767Z,2.79
2023-03-24T12:50:36.680Z,2.69
2023-03-24T12:53:30.364Z,2.74
2023-03-24T12:56:04.067Z,3.05
2023-03-24T12:58:41.704Z,3.48
2023-03-24T13:01:20.785Z,3.47
2023-03-24T13:03:55.701Z,3.25
2023-03-24T13:06:27.979Z,3.21
2023-03-24T13:09:15.300Z,3.03
2023-03-24T13:11:54.044Z,3.00
2023-03-24T13:14:29.844Z,2.95
2023-03-24T13:17:05.639Z,3.21
2023-03-24T13:19:38.238Z,3.61
2023-03-24T13:22:12.952Z,3.60
2023-03-24T13:24:40.970Z,3.58
2023-03-24T13:27:20.961Z,3.49
2023-03-24T13:30:23.882Z,3.61
2023-03-24T13:32:55.650Z,4.01
2023-03-24T13:35:39.577Z,4.24
2023-03-24T13:38:18.501Z,3.88
2023-03-24T13:40:50.794Z,4.23
2023-03-24T13:43:22.426Z,4.37
2023-03-24T13:45:52.387Z,4.65
2023-03-24T13:48:36.495Z,4.51
2023-03-24T13:51:17.136Z,3.89
2023-03-24T13:53:50.503Z,3.83
2023-03-24T13:56:28.062Z,3.64
2023-03-24T13:59:23.440Z,3.89
2023-03-24T14:02:18.061Z,3.47
2023-03-24T14:04:48.156Z,3.41
2023-03-24T14:07:33.172Z,3.76
2023-03-24T14:10:02.640Z,3.52
2023-03-24T14:12:32.784Z,3.80
2023-03-24T14:15:21.638Z,3.45
2023-03-24T14:17:53.991Z,3.66
2023-03-24T14:20:33.054Z,3.26
2023-03-24T14:23:04.422Z,3.63
2023-03-24T14:25:34.024Z,3.58
2023-03-24T14:28:28.897Z,3.45
2023-03-24T14:31:09.761Z,3.25
2023-03-24T14:33:39.078Z,3.53
2023-03-24T14:36:09.740Z,3.22
2023-03-24T14:38:44.296Z,3.48
2023-03-24T14:41:15.990Z,3.33
2023-03-24T14:43:58.993Z,3.31
2023-03-24T14:46:50.833Z,3.01
2023-03-24T14:49:24.244Z,2.99
2023-03-24T14:51:59.030Z,3.14
2023-03-24T14:54:37.378Z,3.14
2023-03-24T14:57:07.617Z,3.01
2023-03-24T14:59:45.377Z,3.21
2023-03-24T15:02:30.061Z,3.31
2023-03-24T15:05:30.012Z,3.51
2023-03-24T15:08:15.849Z,3.57
2023-03-24T15:10:51.100Z,3.84
2023-03-24T15:13:37.772Z,4.14
2023-03-24T15:16:16.971Z,3.93
2023-03-24T15:18:59.842Z,3.71
2023-03-24T15:21:33.762Z,4.45
2023-03-24T15:24:24.083Z,4.31
2023-03-24T15:26:55.366Z,4.18
2023-03-24T15:29:23.249Z,4.10
2023-03-24T15:31:50.941Z,4.26
2023-03-24T15:34:28.633Z,3.89
2023-03-24T15:36:58.574Z,3.61
2023-03-24T15:39:28.668Z,3.79
2023-03-24T15:41:57.315Z,3.74
2023-03-24T15:44:29.038Z,4.19
2023-03-24T15:46:59.475Z,3.71
2023-03-24T15:49:32.017Z,3.89
2023-03-24T15:52:01.453Z,3.91
2023-03-24T15:54:32.082Z,3.85
2023-03-24T15:57:18.394Z,3.96
2023-03-24T15:59:48.634Z,3.76
2023-03-24T16:02:31.066Z,3.81
2023-03-24T16:05:11.030Z,3.88
2023-03-24T16:07:41.337Z,3.32
2023-03-24T16:10:28.512Z,2.68
2023-03-24T16:12:57.259Z,2.03
2023-03-24T16:15:24.719Z,1.63
2023-03-24T16:17:52.011Z,1.50
2023-03-24T16:20:21.210Z,1.45
2023-03-24T16:22:48.571Z,1.48
2023-03-24T16:25:16.177Z,1.05
2023-03-24T16:27:43.494Z,1.10
2023-03-24T16:30:20.974Z,1.17
2023-03-24T16:32:48.094Z,1.43
2023-03-24T16:35:15.316Z,1.50
2023-03-24T16:37:42.508Z,1.23
2023-03-24T16:40:21.787Z,1.23
2023-03-24T16:42:49.315Z,1.19
2023-03-24T16:45:17.962Z,1.03
2023-03-24T16:47:45.221Z,1.31
2023-03-24T16:50:32.515Z,1.03
2023-03-24T16:53:00.937Z,1.14
2023-03-24T16:55:28.256Z,1.13
2023-03-24T16:57:55.505Z,1.30
2023-03-24T17:00:24.797Z,1.33
2023-03-24T17:02:52.208Z,1.62
2023-03-24T17:05:25.787Z,1.74
2023-03-24T17:07:53.576Z,1.57
2023-03-24T17:10:21.835Z,1.61
2023-03-24T17:12:50.794Z,1.39
2023-03-24T17:15:22.217Z,2.34
2023-03-24T17:17:51.384Z,1.52
2023-03-24T17:20:19.912Z,1.33
2023-03-24T17:22:50.297Z,1.17
2023-03-24T17:25:20.364Z,1.39
2023-03-24T17:27:47.572Z,1.27
2023-03-24T17:30:17.700Z,2.25
2023-03-24T17:32:44.893Z,1.07
2023-03-24T17:35:16.206Z,1.15
2023-03-24T17:37:43.335Z,1.42
2023-03-24T17:40:12.813Z,1.51
2023-03-24T17:42:45.115Z,1.27
2023-03-24T17:45:19.741Z,1.54
2023-03-24T17:47:47.283Z,1.55
2023-03-24T17:50:17.971Z,2.21
2023-03-24T17:52:47.838Z,1.97
2023-03-24T17:55:17.341Z,2.21
2023-03-24T17:57:45.432Z,2.27
2023-03-24T18:00:15.019Z,2.71
2023-03-24T18:02:44.094Z,2.58
2023-03-24T18:05:12.778Z,2.35
2023-03-24T18:07:42.014Z,2.30
2023-03-24T18:10:10.527Z,1.97
2023-03-24T18:12:37.770Z,2.21
2023-03-24T18:15:05.878Z,2.78
2023-03-24T18:17:33.330Z,2.68
2023-03-24T18:20:00.718Z,3.38
2023-03-24T18:22:27.939Z,3.14
2023-03-24T18:24:56.661Z,1.95
2023-03-24T18:27:23.977Z,1.86
2023-03-24T18:29:51.062Z,2.02
2023-03-24T18:32:18.307Z,1.92
2023-03-24T18:34:45.458Z,1.95
2023-03-24T18:37:12.829Z,2.21
2023-03-24T18:39:39.946Z,2.23
2023-03-24T18:42:08.846Z,2.65
2023-03-24T18:44:36.945Z,2.83
2023-03-24T18:47:04.417Z,3.41
2023-03-24T18:49:31.769Z,3.56
2023-03-24T18:51:58.989Z,3.10
2023-03-24T18:54:26.368Z,2.56
2023-03-24T18:56:53.538Z,2.54
2023-03-24T18:59:23.015Z,3.32
2023-03-24T19:01:50.520Z,3.28
2023-03-24T19:04:18.231Z,3.07
2023-03-24T19:06:45.447Z,2.98
2023-03-24T19:09:12.749Z,3.81
2023-03-24T19:11:42.745Z,3.34
2023-03-24T19:14:10.631Z,3.06
2023-03-24T19:16:39.534Z,3.74
2023-03-24T19:19:06.922Z,3.79
2023-03-24T19:21:34.148Z,3.19
2023-03-24T19:24:02.725Z,2.63
2023-03-24T19:26:29.961Z,2.17
2023-03-24T19:28:57.201Z,2.13
2023-03-24T19:31:24.707Z,2.20
2023-03-24T19:33:53.550Z,2.56
2023-03-24T19:36:20.903Z,2.08
2023-03-24T19:38:48.424Z,1.70
2023-03-24T19:41:15.857Z,1.65
2023-03-24T19:43:43.316Z,1.81
2023-03-24T19:46:10.634Z,1.76
2023-03-24T19:48:37.947Z,1.93
2023-03-24T19:51:06.932Z,2.20
2023-03-24T19:53:34.205Z,2.38
2023-03-24T19:56:01.470Z,2.20
2023-03-24T19:58:29.926Z,2.81
2023-03-24T20:00:57.673Z,2.92
2023-03-24T20:03:26.269Z,3.53
2023-03-24T20:05:53.644Z,4.23
2023-03-24T20:08:23.526Z,3.75
2023-03-24T20:10:51.004Z,3.31
2023-03-24T20:13:18.288Z,2.05
2023-03-24T20:15:46.634Z,1.92
2023-03-24T20:18:14.362Z,2.09
2023-03-24T20:20:41.704Z,2.12
2023-03-24T20:23:08.862Z,2.30
2023-03-24T20:25:41.845Z,3.06
2023-03-24T20:28:09.485Z,2.86
2023-03-24T20:30:36.769Z,2.31
2023-03-24T20:33:04.366Z,2.78
2023-03-24T20:35:31.871Z,3.05
2023-03-24T20:37:59.871Z,2.78
2023-03-24T20:40:27.189Z,2.87
2023-03-24T20:42:56.007Z,2.51
2023-03-24T20:45:23.228Z,2.41
2023-03-24T20:47:50.481Z,2.20
2023-03-24T20:50:18.086Z,2.15
2023-03-24T20:52:45.147Z,1.79
2023-03-24T20:55:12.669Z,2.35
2023-03-24T20:57:39.905Z,2.89
2023-03-24T21:00:10.495Z,3.11
2023-03-24T21:02:38.113Z,3.17
2023-03-24T21:05:06.264Z,3.05
2023-03-24T21:07:33.610Z,3.34
2023-03-24T21:10:00.846Z,2.45
2023-03-24T21:12:28.068Z,3.50
2023-03-24T21:14:56.043Z,2.80
2023-03-24T21:17:24.932Z,2.57
2023-03-24T21:19:52.118Z,2.48
2023-03-24T21:22:19.320Z,3.27
2023-03-24T21:24:46.561Z,3.26
2023-03-24T21:27:13.767Z,3.23
2023-03-24T21:29:41.061Z,2.96
2023-03-24T21:32:09.641Z,2.81
2023-03-24T21:34:38.389Z,2.78
2023-03-24T21:37:05.625Z,2.95
2023-03-24T21:39:33.246Z,3.01
2023-03-24T21:42:02.348Z,3.91
2023-03-24T21:44:32.172Z,4.45
2023-03-24T21:47:02.023Z,3.50
2023-03-24T21:49:29.157Z,2.95
2023-03-24T21:51:57.858Z,3.24
2023-03-24T21:54:25.124Z,3.40
2023-03-24T21:56:52.360Z,3.29
2023-03-24T21:59:20.512Z,3.24
2023-03-24T22:01:47.985Z,3.17
2023-03-24T22:04:16.614Z,3.37
2023-03-24T22:06:44.670Z,3.26
2023-03-24T22:09:13.333Z,2.71
2023-03-24T22:11:40.512Z,2.60
2023-03-24T22:14:07.666Z,2.59
2023-03-24T22:16:34.852Z,2.37
2023-03-24T22:19:02.070Z,2.32
2023-03-24T22:21:29.380Z,2.92
2023-03-24T22:23:57.333Z,2.99
2023-03-24T22:26:26.139Z,2.38
2023-03-24T22:28:53.269Z,2.14
2023-03-24T22:31:20.516Z,2.43
2023-03-24T22:33:47.814Z,2.93
2023-03-24T22:36:14.976Z,2.95
2023-03-24T22:38:42.313Z,2.53
2023-03-24T22:41:15.187Z,2.81
2023-03-24T22:43:45.076Z,3.15
2023-03-24T22:46:12.297Z,3.03
2023-03-24T22:48:39.935Z,4.94
2023-03-24T22:51:08.158Z,4.00
2023-03-24T22:53:35.882Z,2.30
2023-03-24T22:56:03.248Z,2.25
2023-03-24T22:58:30.368Z,2.66
2023-03-24T23:00:59.089Z,2.54
2023-03-24T23:03:26.893Z,2.51
2023-03-24T23:05:54.100Z,2.46
2023-03-24T23:08:21.250Z,2.46
2023-03-24T23:10:49.114Z,2.25
2023-03-24T23:13:17.532Z,2.02
2023-03-24T23:15:48.845Z,2.23
2023-03-24T23:18:18.711Z,1.89
2023-03-24T23:20:46.710Z,1.67
2023-03-24T23:23:14.496Z,1.57
2023-03-24T23:25:43.758Z,1.55
2023-03-24T23:28:12.298Z,1.47
2023-03-24T23:30:40.658Z,1.43
2023-03-24T23:33:08.282Z,1.05
2023-03-24T23:35:37.727Z,1.16
2023-03-24T23:38:05.046Z,1.10
2023-03-24T23:40:32.237Z,1.14
2023-03-24T23:42:59.678Z,1.33
2023-03-24T23:45:27.568Z,0.96
2023-03-24T23:47:54.977Z,0.96
2023-03-24T23:50:22.488Z,1.08
2023-03-24T23:52:51.245Z,1.14
2023-03-24T23:55:18.648Z,1.36
2023-03-24T23:57:45.956Z,1.51
